Terminal Aerodrome Forecast
Issued by NWS La Crosse, WI

Home | Current Version | Previous Version | Text Only | Print | Product List | Glossary On
Versions: 1 2 3 4 5 6 7 8 9 10 11 12 13 14 15 16 17 18 19 20 21 22 23 24 25 26 27 28
000
FTUS43 KARX 311728
TAFLSE
TAF
KLSE 311728Z 3118/0118 31015G23KT P6SM FEW050
     FM010000 27007KT P6SM SKC
     FM010400 VRB04KT P6SM VCSH SCT070
     FM011200 30004KT P6SM SKC=

USA.gov is the U.S. government's official web portal to all federal, state and local government web resources and services.